sensor_id;sensor_type;location;lat;lon;timestamp;P1;durP1;ratioP1;P2;durP2;ratioP2
22111;SDS011;11222;50.872;4.312;2023-02-15T00:00:19;84.20;;;45.65;;
22111;SDS011;11222;50.872;4.312;2023-02-15T00:02:45;83.80;;;45.00;;
22111;SDS011;11222;50.872;4.312;2023-02-15T00:05:11;80.30;;;44.75;;
22111;SDS011;11222;50.872;4.312;2023-02-15T00:07:36;81.65;;;45.75;;
22111;SDS011;11222;50.872;4.312;2023-02-15T00:10:02;86.45;;;46.20;;
22111;SDS011;11222;50.872;4.312;2023-02-15T00:12:28;78.72;;;44.70;;
22111;SDS011;11222;50.872;4.312;2023-02-15T00:14:54;82.32;;;45.72;;
22111;SDS011;11222;50.872;4.312;2023-02-15T00:17:20;82.32;;;47.00;;
22111;SDS011;11222;50.872;4.312;2023-02-15T00:19:46;91.07;;;47.05;;
22111;SDS011;11222;50.872;4.312;2023-02-15T00:22:12;83.20;;;46.08;;
22111;SDS011;11222;50.872;4.312;2023-02-15T00:24:37;91.85;;;48.90;;
22111;SDS011;11222;50.872;4.312;2023-02-15T00:27:03;87.65;;;48.75;;
22111;SDS011;11222;50.872;4.312;2023-02-15T00:29:29;91.38;;;50.00;;
22111;SDS011;11222;50.872;4.312;2023-02-15T00:31:55;94.22;;;49.15;;
22111;SDS011;11222;50.872;4.312;2023-02-15T00:34:22;95.38;;;49.55;;
22111;SDS011;11222;50.872;4.312;2023-02-15T00:36:49;91.40;;;49.35;;
22111;SDS011;11222;50.872;4.312;2023-02-15T00:39:15;88.80;;;48.85;;
22111;SDS011;11222;50.872;4.312;2023-02-15T00:41:42;84.20;;;46.70;;
22111;SDS011;11222;50.872;4.312;2023-02-15T00:44:08;82.90;;;46.28;;
22111;SDS011;11222;50.872;4.312;2023-02-15T00:46:34;79.47;;;44.67;;
22111;SDS011;11222;50.872;4.312;2023-02-15T00:49:00;83.40;;;46.00;;
22111;SDS011;11222;50.872;4.312;2023-02-15T00:51:26;84.72;;;46.72;;
22111;SDS011;11222;50.872;4.312;2023-02-15T00:53:52;84.40;;;47.28;;
22111;SDS011;11222;50.872;4.312;2023-02-15T00:56:18;80.05;;;44.90;;
22111;SDS011;11222;50.872;4.312;2023-02-15T00:58:44;84.60;;;44.83;;
22111;SDS011;11222;50.872;4.312;2023-02-15T01:01:11;89.85;;;47.40;;
22111;SDS011;11222;50.872;4.312;2023-02-15T01:03:39;86.43;;;45.97;;
22111;SDS011;11222;50.872;4.312;2023-02-15T01:06:06;81.90;;;44.53;;
22111;SDS011;11222;50.872;4.312;2023-02-15T01:08:32;80.07;;;45.08;;
22111;SDS011;11222;50.872;4.312;2023-02-15T01:11:03;79.57;;;44.38;;
22111;SDS011;11222;50.872;4.312;2023-02-15T01:13:33;80.15;;;43.53;;
22111;SDS011;11222;50.872;4.312;2023-02-15T01:16:00;80.78;;;43.28;;
22111;SDS011;11222;50.872;4.312;2023-02-15T01:18:25;75.03;;;43.72;;
22111;SDS011;11222;50.872;4.312;2023-02-15T01:20:51;77.75;;;42.70;;
22111;SDS011;11222;50.872;4.312;2023-02-15T01:23:18;73.25;;;42.72;;
22111;SDS011;11222;50.872;4.312;2023-02-15T01:25:44;79.35;;;41.45;;
22111;SDS011;11222;50.872;4.312;2023-02-15T01:28:10;77.60;;;43.45;;
22111;SDS011;11222;50.872;4.312;2023-02-15T01:30:36;80.13;;;43.47;;
22111;SDS011;11222;50.872;4.312;2023-02-15T01:33:02;76.90;;;43.80;;
22111;SDS011;11222;50.872;4.312;2023-02-15T01:35:28;78.63;;;44.70;;
22111;SDS011;11222;50.872;4.312;2023-02-15T01:37:54;80.10;;;43.95;;
22111;SDS011;11222;50.872;4.312;2023-02-15T01:40:21;75.82;;;42.45;;
22111;SDS011;11222;50.872;4.312;2023-02-15T01:42:49;75.70;;;42.70;;
22111;SDS011;11222;50.872;4.312;2023-02-15T01:45:21;76.10;;;44.03;;
22111;SDS011;11222;50.872;4.312;2023-02-15T01:47:59;76.78;;;42.60;;
22111;SDS011;11222;50.872;4.312;2023-02-15T01:50:45;77.00;;;42.25;;
22111;SDS011;11222;50.872;4.312;2023-02-15T01:53:37;76.65;;;43.80;;
22111;SDS011;11222;50.872;4.312;2023-02-15T01:56:19;75.07;;;41.90;;
22111;SDS011;11222;50.872;4.312;2023-02-15T01:58:48;75.75;;;43.58;;
22111;SDS011;11222;50.872;4.312;2023-02-15T02:01:15;85.50;;;44.50;;
22111;SDS011;11222;50.872;4.312;2023-02-15T02:03:45;79.93;;;44.28;;
22111;SDS011;11222;50.872;4.312;2023-02-15T02:06:26;77.25;;;43.40;;
22111;SDS011;11222;50.872;4.312;2023-02-15T02:08:52;74.93;;;42.90;;
22111;SDS011;11222;50.872;4.312;2023-02-15T02:11:19;80.75;;;43.05;;
22111;SDS011;11222;50.872;4.312;2023-02-15T02:13:45;75.85;;;44.08;;
22111;SDS011;11222;50.872;4.312;2023-02-15T02:46:33;72.25;;;42.35;;
22111;SDS011;11222;50.872;4.312;2023-02-15T02:49:12;79.82;;;42.88;;
22111;SDS011;11222;50.872;4.312;2023-02-15T02:51:38;78.63;;;41.67;;
22111;SDS011;11222;50.872;4.312;2023-02-15T02:54:04;78.35;;;43.42;;
22111;SDS011;11222;50.872;4.312;2023-02-15T02:56:41;71.72;;;39.85;;
22111;SDS011;11222;50.872;4.312;2023-02-15T03:01:52;68.57;;;40.50;;
22111;SDS011;11222;50.872;4.312;2023-02-15T03:04:25;72.70;;;42.20;;
22111;SDS011;11222;50.872;4.312;2023-02-15T03:07:03;73.80;;;40.92;;
22111;SDS011;11222;50.872;4.312;2023-02-15T03:09:36;74.43;;;40.92;;
22111;SDS011;11222;50.872;4.312;2023-02-15T03:12:11;75.65;;;41.65;;
22111;SDS011;11222;50.872;4.312;2023-02-15T03:14:46;77.80;;;40.85;;
22111;SDS011;11222;50.872;4.312;2023-02-15T03:17:16;73.30;;;42.85;;
22111;SDS011;11222;50.872;4.312;2023-02-15T03:19:45;81.82;;;43.05;;
22111;SDS011;11222;50.872;4.312;2023-02-15T03:22:14;76.95;;;42.58;;
22111;SDS011;11222;50.872;4.312;2023-02-15T03:27:19;72.38;;;41.40;;
22111;SDS011;11222;50.872;4.312;2023-02-15T03:29:51;67.15;;;39.15;;
22111;SDS011;11222;50.872;4.312;2023-02-15T03:32:20;73.10;;;39.97;;
22111;SDS011;11222;50.872;4.312;2023-02-15T03:34:48;74.88;;;41.13;;
22111;SDS011;11222;50.872;4.312;2023-02-15T03:37:26;71.97;;;41.92;;
22111;SDS011;11222;50.872;4.312;2023-02-15T03:43:17;77.20;;;43.08;;
22111;SDS011;11222;50.872;4.312;2023-02-15T03:45:53;78.72;;;41.70;;
22111;SDS011;11222;50.872;4.312;2023-02-15T03:48:22;72.68;;;40.97;;
22111;SDS011;11222;50.872;4.312;2023-02-15T03:50:53;73.97;;;41.00;;
22111;SDS011;11222;50.872;4.312;2023-02-15T03:53:42;71.82;;;41.65;;
22111;SDS011;11222;50.872;4.312;2023-02-15T03:56:10;69.68;;;40.50;;
22111;SDS011;11222;50.872;4.312;2023-02-15T03:58:36;70.18;;;40.17;;
22111;SDS011;11222;50.872;4.312;2023-02-15T04:01:34;86.18;;;42.88;;
22111;SDS011;11222;50.872;4.312;2023-02-15T04:04:22;72.65;;;41.28;;
22111;SDS011;11222;50.872;4.312;2023-02-15T04:06:55;73.80;;;41.33;;
22111;SDS011;11222;50.872;4.312;2023-02-15T04:09:21;70.72;;;40.78;;
22111;SDS011;11222;50.872;4.312;2023-02-15T04:12:05;77.40;;;41.35;;
22111;SDS011;11222;50.872;4.312;2023-02-15T04:14:31;68.80;;;38.85;;
22111;SDS011;11222;50.872;4.312;2023-02-15T04:17:15;69.22;;;38.95;;
22111;SDS011;11222;50.872;4.312;2023-02-15T04:19:41;70.13;;;39.10;;
22111;SDS011;11222;50.872;4.312;2023-02-15T04:22:25;73.68;;;39.03;;
22111;SDS011;11222;50.872;4.312;2023-02-15T04:25:09;71.45;;;38.65;;
22111;SDS011;11222;50.872;4.312;2023-02-15T04:27:46;72.00;;;38.05;;
22111;SDS011;11222;50.872;4.312;2023-02-15T04:30:14;66.15;;;38.58;;
22111;SDS011;11222;50.872;4.312;2023-02-15T04:32:41;68.18;;;38.88;;
22111;SDS011;11222;50.872;4.312;2023-02-15T04:35:07;64.63;;;37.80;;
22111;SDS011;11222;50.872;4.312;2023-02-15T04:37:34;67.45;;;39.05;;
22111;SDS011;11222;50.872;4.312;2023-02-15T04:40:02;68.25;;;39.80;;
22111;SDS011;11222;50.872;4.312;2023-02-15T04:42:28;74.97;;;40.08;;
22111;SDS011;11222;50.872;4.312;2023-02-15T04:44:54;75.38;;;39.67;;
22111;SDS011;11222;50.872;4.312;2023-02-15T04:47:20;74.38;;;41.78;;
22111;SDS011;11222;50.872;4.312;2023-02-15T04:49:46;71.22;;;39.35;;
22111;SDS011;11222;50.872;4.312;2023-02-15T04:52:11;75.13;;;40.05;;
22111;SDS011;11222;50.872;4.312;2023-02-15T04:54:38;69.93;;;38.03;;
22111;SDS011;11222;50.872;4.312;2023-02-15T04:57:04;78.10;;;40.83;;
22111;SDS011;11222;50.872;4.312;2023-02-15T04:59:30;72.55;;;40.53;;
22111;SDS011;11222;50.872;4.312;2023-02-15T05:01:56;74.72;;;41.92;;
22111;SDS011;11222;50.872;4.312;2023-02-15T05:04:22;74.65;;;40.38;;
22111;SDS011;11222;50.872;4.312;2023-02-15T05:06:48;77.13;;;41.40;;
22111;SDS011;11222;50.872;4.312;2023-02-15T05:09:14;75.25;;;40.70;;
22111;SDS011;11222;50.872;4.312;2023-02-15T05:11:41;77.88;;;41.00;;
22111;SDS011;11222;50.872;4.312;2023-02-15T05:14:07;83.72;;;42.70;;
22111;SDS011;11222;50.872;4.312;2023-02-15T05:16:33;78.95;;;41.35;;
22111;SDS011;11222;50.872;4.312;2023-02-15T05:18:59;82.75;;;42.92;;
22111;SDS011;11222;50.872;4.312;2023-02-15T05:21:25;82.03;;;43.28;;
22111;SDS011;11222;50.872;4.312;2023-02-15T05:23:52;80.25;;;42.08;;
22111;SDS011;11222;50.872;4.312;2023-02-15T05:26:21;84.43;;;42.40;;
22111;SDS011;11222;50.872;4.312;2023-02-15T05:29:07;79.20;;;43.40;;
22111;SDS011;11222;50.872;4.312;2023-02-15T05:31:33;77.95;;;42.50;;
22111;SDS011;11222;50.872;4.312;2023-02-15T05:33:59;72.85;;;41.85;;
22111;SDS011;11222;50.872;4.312;2023-02-15T05:36:25;71.10;;;40.72;;
22111;SDS011;11222;50.872;4.312;2023-02-15T05:38:51;77.45;;;42.35;;
22111;SDS011;11222;50.872;4.312;2023-02-15T05:41:17;74.75;;;41.17;;
22111;SDS011;11222;50.872;4.312;2023-02-15T05:43:43;71.80;;;39.10;;
22111;SDS011;11222;50.872;4.312;2023-02-15T05:46:08;71.25;;;39.50;;
22111;SDS011;11222;50.872;4.312;2023-02-15T05:48:34;79.53;;;39.53;;
22111;SDS011;11222;50.872;4.312;2023-02-15T05:53:28;73.15;;;40.30;;
22111;SDS011;11222;50.872;4.312;2023-02-15T05:55:55;72.57;;;39.13;;
22111;SDS011;11222;50.872;4.312;2023-02-15T05:58:27;72.35;;;38.88;;
22111;SDS011;11222;50.872;4.312;2023-02-15T06:00:54;71.85;;;39.15;;
22111;SDS011;11222;50.872;4.312;2023-02-15T06:03:20;71.30;;;37.70;;
22111;SDS011;11222;50.872;4.312;2023-02-15T06:05:46;69.40;;;36.83;;
22111;SDS011;11222;50.872;4.312;2023-02-15T06:08:12;69.32;;;37.67;;
22111;SDS011;11222;50.872;4.312;2023-02-15T06:10:38;72.32;;;37.75;;
22111;SDS011;11222;50.872;4.312;2023-02-15T06:13:05;70.80;;;36.78;;
22111;SDS011;11222;50.872;4.312;2023-02-15T06:15:31;66.97;;;36.60;;
22111;SDS011;11222;50.872;4.312;2023-02-15T06:17:57;63.80;;;36.55;;
22111;SDS011;11222;50.872;4.312;2023-02-15T06:20:23;68.22;;;37.00;;
22111;SDS011;11222;50.872;4.312;2023-02-15T06:22:48;67.18;;;35.90;;
22111;SDS011;11222;50.872;4.312;2023-02-15T06:25:14;66.20;;;36.88;;
22111;SDS011;11222;50.872;4.312;2023-02-15T06:27:43;66.20;;;36.42;;
22111;SDS011;11222;50.872;4.312;2023-02-15T06:30:09;68.57;;;36.45;;
22111;SDS011;11222;50.872;4.312;2023-02-15T06:32:36;68.10;;;38.90;;
22111;SDS011;11222;50.872;4.312;2023-02-15T06:35:01;71.30;;;38.03;;
22111;SDS011;11222;50.872;4.312;2023-02-15T06:37:27;77.18;;;37.85;;
22111;SDS011;11222;50.872;4.312;2023-02-15T06:39:53;69.07;;;36.90;;
22111;SDS011;11222;50.872;4.312;2023-02-15T06:42:19;67.03;;;36.10;;
22111;SDS011;11222;50.872;4.312;2023-02-15T06:44:44;95.72;;;45.30;;
22111;SDS011;11222;50.872;4.312;2023-02-15T06:47:10;74.53;;;39.38;;
22111;SDS011;11222;50.872;4.312;2023-02-15T06:49:36;66.65;;;37.08;;
22111;SDS011;11222;50.872;4.312;2023-02-15T06:52:03;60.15;;;35.72;;
22111;SDS011;11222;50.872;4.312;2023-02-15T06:54:28;65.07;;;36.90;;
22111;SDS011;11222;50.872;4.312;2023-02-15T06:56:54;65.82;;;36.10;;
22111;SDS011;11222;50.872;4.312;2023-02-15T06:59:20;65.05;;;37.17;;
22111;SDS011;11222;50.872;4.312;2023-02-15T07:01:46;63.42;;;35.72;;
22111;SDS011;11222;50.872;4.312;2023-02-15T07:04:11;61.97;;;34.90;;
22111;SDS011;11222;50.872;4.312;2023-02-15T07:06:37;68.05;;;36.15;;
22111;SDS011;11222;50.872;4.312;2023-02-15T07:09:03;65.70;;;36.13;;
22111;SDS011;11222;50.872;4.312;2023-02-15T07:11:30;72.20;;;36.45;;
22111;SDS011;11222;50.872;4.312;2023-02-15T07:14:14;63.70;;;35.72;;
22111;SDS011;11222;50.872;4.312;2023-02-15T07:16:40;65.85;;;37.00;;
22111;SDS011;11222;50.872;4.312;2023-02-15T07:19:06;60.03;;;35.15;;
22111;SDS011;11222;50.872;4.312;2023-02-15T07:21:32;65.25;;;36.03;;
22111;SDS011;11222;50.872;4.312;2023-02-15T07:23:59;64.65;;;34.78;;
22111;SDS011;11222;50.872;4.312;2023-02-15T07:26:25;67.95;;;34.25;;
22111;SDS011;11222;50.872;4.312;2023-02-15T07:28:51;60.90;;;34.30;;
22111;SDS011;11222;50.872;4.312;2023-02-15T07:31:17;60.00;;;34.95;;
22111;SDS011;11222;50.872;4.312;2023-02-15T07:33:42;59.78;;;33.63;;
22111;SDS011;11222;50.872;4.312;2023-02-15T07:36:08;56.42;;;33.33;;
22111;SDS011;11222;50.872;4.312;2023-02-15T07:38:37;62.10;;;33.13;;
22111;SDS011;11222;50.872;4.312;2023-02-15T07:41:05;57.17;;;32.30;;
22111;SDS011;11222;50.872;4.312;2023-02-15T07:43:36;67.25;;;33.47;;
22111;SDS011;11222;50.872;4.312;2023-02-15T07:46:05;55.38;;;32.25;;
22111;SDS011;11222;50.872;4.312;2023-02-15T07:48:33;63.33;;;33.78;;
22111;SDS011;11222;50.872;4.312;2023-02-15T07:51:00;60.45;;;33.85;;
22111;SDS011;11222;50.872;4.312;2023-02-15T07:53:27;59.75;;;33.30;;
22111;SDS011;11222;50.872;4.312;2023-02-15T07:55:53;56.58;;;32.35;;
22111;SDS011;11222;50.872;4.312;2023-02-15T07:58:20;59.85;;;32.58;;
22111;SDS011;11222;50.872;4.312;2023-02-15T08:00:46;57.58;;;32.88;;
22111;SDS011;11222;50.872;4.312;2023-02-15T08:03:26;62.60;;;34.35;;
22111;SDS011;11222;50.872;4.312;2023-02-15T08:05:57;58.15;;;32.78;;
22111;SDS011;11222;50.872;4.312;2023-02-15T08:08:26;58.97;;;32.15;;
22111;SDS011;11222;50.872;4.312;2023-02-15T08:11:28;61.95;;;33.75;;
22111;SDS011;11222;50.872;4.312;2023-02-15T08:13:56;64.80;;;32.28;;
22111;SDS011;11222;50.872;4.312;2023-02-15T08:16:37;54.65;;;31.98;;
22111;SDS011;11222;50.872;4.312;2023-02-15T08:19:13;59.95;;;33.33;;
22111;SDS011;11222;50.872;4.312;2023-02-15T08:21:45;57.38;;;32.40;;
22111;SDS011;11222;50.872;4.312;2023-02-15T08:24:19;57.22;;;31.58;;
22111;SDS011;11222;50.872;4.312;2023-02-15T08:26:46;67.93;;;33.38;;
22111;SDS011;11222;50.872;4.312;2023-02-15T08:29:13;60.25;;;32.67;;
22111;SDS011;11222;50.872;4.312;2023-02-15T08:31:41;58.50;;;33.08;;
22111;SDS011;11222;50.872;4.312;2023-02-15T08:34:10;60.63;;;32.95;;
22111;SDS011;11222;50.872;4.312;2023-02-15T08:36:38;57.35;;;32.70;;
22111;SDS011;11222;50.872;4.312;2023-02-15T08:39:05;58.00;;;30.73;;
22111;SDS011;11222;50.872;4.312;2023-02-15T08:41:35;53.65;;;29.13;;
22111;SDS011;11222;50.872;4.312;2023-02-15T08:44:03;81.43;;;31.40;;
22111;SDS011;11222;50.872;4.312;2023-02-15T08:46:32;60.08;;;31.88;;
22111;SDS011;11222;50.872;4.312;2023-02-15T08:48:59;61.50;;;32.63;;
22111;SDS011;11222;50.872;4.312;2023-02-15T08:51:32;52.10;;;30.92;;
22111;SDS011;11222;50.872;4.312;2023-02-15T08:54:00;54.42;;;30.85;;
22111;SDS011;11222;50.872;4.312;2023-02-15T08:56:28;53.53;;;31.00;;
22111;SDS011;11222;50.872;4.312;2023-02-15T08:58:56;56.97;;;28.60;;
22111;SDS011;11222;50.872;4.312;2023-02-15T09:01:23;44.67;;;26.63;;
22111;SDS011;11222;50.872;4.312;2023-02-15T09:03:58;50.67;;;27.55;;
22111;SDS011;11222;50.872;4.312;2023-02-15T09:08:55;46.80;;;26.75;;
22111;SDS011;11222;50.872;4.312;2023-02-15T09:11:22;47.60;;;25.27;;
22111;SDS011;11222;50.872;4.312;2023-02-15T09:13:59;44.30;;;25.17;;
22111;SDS011;11222;50.872;4.312;2023-02-15T09:16:27;40.22;;;24.45;;
22111;SDS011;11222;50.872;4.312;2023-02-15T09:18:54;42.50;;;24.90;;
22111;SDS011;11222;50.872;4.312;2023-02-15T09:21:22;44.30;;;26.10;;
22111;SDS011;11222;50.872;4.312;2023-02-15T09:23:50;48.95;;;26.02;;
22111;SDS011;11222;50.872;4.312;2023-02-15T09:26:20;48.47;;;24.77;;
22111;SDS011;11222;50.872;4.312;2023-02-15T09:28:48;42.25;;;24.02;;
22111;SDS011;11222;50.872;4.312;2023-02-15T09:31:18;46.63;;;26.80;;
22111;SDS011;11222;50.872;4.312;2023-02-15T09:33:46;42.72;;;25.73;;
22111;SDS011;11222;50.872;4.312;2023-02-15T09:36:16;41.47;;;24.30;;
22111;SDS011;11222;50.872;4.312;2023-02-15T09:38:47;44.60;;;24.83;;
22111;SDS011;11222;50.872;4.312;2023-02-15T10:28:23;44.78;;;24.58;;
22111;SDS011;11222;50.872;4.312;2023-02-15T10:30:56;38.92;;;24.35;;
22111;SDS011;11222;50.872;4.312;2023-02-15T10:33:47;45.40;;;25.80;;
22111;SDS011;11222;50.872;4.312;2023-02-15T10:50:12;46.97;;;24.92;;
22111;SDS011;11222;50.872;4.312;2023-02-15T11:06:16;44.97;;;24.58;;
22111;SDS011;11222;50.872;4.312;2023-02-15T11:08:46;43.33;;;24.52;;
22111;SDS011;11222;50.872;4.312;2023-02-15T11:13:56;51.38;;;25.00;;
22111;SDS011;11222;50.872;4.312;2023-02-15T11:16:26;43.17;;;23.80;;
22111;SDS011;11222;50.872;4.312;2023-02-15T11:19:38;42.97;;;24.90;;
22111;SDS011;11222;50.872;4.312;2023-02-15T11:21:52;40.28;;;23.92;;
22111;SDS011;11222;50.872;4.312;2023-02-15T11:24:24;43.80;;;25.80;;
22111;SDS011;11222;50.872;4.312;2023-02-15T11:26:56;40.50;;;24.23;;
22111;SDS011;11222;50.872;4.312;2023-02-15T11:30:28;46.95;;;25.52;;
22111;SDS011;11222;50.872;4.312;2023-02-15T11:37:39;43.28;;;27.42;;
22111;SDS011;11222;50.872;4.312;2023-02-15T11:40:25;49.17;;;27.92;;
22111;SDS011;11222;50.872;4.312;2023-02-15T11:42:56;47.10;;;28.05;;
22111;SDS011;11222;50.872;4.312;2023-02-15T11:47:56;57.35;;;29.33;;
22111;SDS011;11222;50.872;4.312;2023-02-15T11:50:24;51.05;;;27.98;;
22111;SDS011;11222;50.872;4.312;2023-02-15T11:53:16;50.75;;;29.25;;
22111;SDS011;11222;50.872;4.312;2023-02-15T11:55:47;49.05;;;29.15;;
22111;SDS011;11222;50.872;4.312;2023-02-15T12:01:30;49.08;;;29.77;;
22111;SDS011;11222;50.872;4.312;2023-02-15T12:06:58;48.72;;;29.05;;
22111;SDS011;11222;50.872;4.312;2023-02-15T12:10:42;50.72;;;29.40;;
22111;SDS011;11222;50.872;4.312;2023-02-15T12:13:28;54.28;;;30.20;;
22111;SDS011;11222;50.872;4.312;2023-02-15T12:15:48;53.70;;;29.80;;
22111;SDS011;11222;50.872;4.312;2023-02-15T12:18:31;313.63;;;50.72;;
22111;SDS011;11222;50.872;4.312;2023-02-15T12:21:16;297.30;;;51.92;;
22111;SDS011;11222;50.872;4.312;2023-02-15T12:23:59;378.75;;;51.50;;
22111;SDS011;11222;50.872;4.312;2023-02-15T12:26:34;55.38;;;29.10;;
22111;SDS011;11222;50.872;4.312;2023-02-15T12:29:06;52.35;;;29.38;;
22111;SDS011;11222;50.872;4.312;2023-02-15T12:31:40;46.55;;;28.98;;
22111;SDS011;11222;50.872;4.312;2023-02-15T12:34:12;508.73;;;66.15;;
22111;SDS011;11222;50.872;4.312;2023-02-15T12:36:51;551.28;;;72.68;;
22111;SDS011;11222;50.872;4.312;2023-02-15T12:39:29;172.40;;;38.72;;
22111;SDS011;11222;50.872;4.312;2023-02-15T12:44:30;54.47;;;31.13;;
22111;SDS011;11222;50.872;4.312;2023-02-15T12:47:02;57.75;;;31.15;;
22111;SDS011;11222;50.872;4.312;2023-02-15T12:49:29;772.97;;;87.13;;
22111;SDS011;11222;50.872;4.312;2023-02-15T12:52:00;57.05;;;30.13;;
22111;SDS011;11222;50.872;4.312;2023-02-15T12:57:17;53.50;;;31.80;;
22111;SDS011;11222;50.872;4.312;2023-02-15T12:59:56;51.55;;;30.15;;
22111;SDS011;11222;50.872;4.312;2023-02-15T13:02:25;59.75;;;31.23;;
22111;SDS011;11222;50.872;4.312;2023-02-15T13:04:55;54.03;;;31.30;;
22111;SDS011;11222;50.872;4.312;2023-02-15T13:07:23;55.15;;;30.85;;
22111;SDS011;11222;50.872;4.312;2023-02-15T13:09:55;55.45;;;29.85;;
22111;SDS011;11222;50.872;4.312;2023-02-15T13:12:23;60.30;;;30.20;;
22111;SDS011;11222;50.872;4.312;2023-02-15T13:14:55;50.38;;;29.10;;
22111;SDS011;11222;50.872;4.312;2023-02-15T13:17:26;55.85;;;30.63;;
22111;SDS011;11222;50.872;4.312;2023-02-15T13:19:54;52.20;;;31.02;;
22111;SDS011;11222;50.872;4.312;2023-02-15T13:22:25;52.03;;;30.33;;
22111;SDS011;11222;50.872;4.312;2023-02-15T13:25:17;56.92;;;30.65;;
22111;SDS011;11222;50.872;4.312;2023-02-15T13:27:51;60.03;;;30.45;;
22111;SDS011;11222;50.872;4.312;2023-02-15T13:33:04;62.95;;;31.17;;
22111;SDS011;11222;50.872;4.312;2023-02-15T13:47:24;56.28;;;31.65;;
22111;SDS011;11222;50.872;4.312;2023-02-15T14:04:53;52.28;;;31.40;;
22111;SDS011;11222;50.872;4.312;2023-02-15T14:10:05;50.03;;;31.83;;
22111;SDS011;11222;50.872;4.312;2023-02-15T14:32:20;73.10;;;33.05;;
22111;SDS011;11222;50.872;4.312;2023-02-15T14:34:51;54.97;;;31.13;;
22111;SDS011;11222;50.872;4.312;2023-02-15T14:37:36;53.38;;;32.80;;
22111;SDS011;11222;50.872;4.312;2023-02-15T14:43:23;64.50;;;36.33;;
22111;SDS011;11222;50.872;4.312;2023-02-15T14:45:56;54.78;;;32.92;;
22111;SDS011;11222;50.872;4.312;2023-02-15T14:48:28;56.15;;;33.33;;
22111;SDS011;11222;50.872;4.312;2023-02-15T14:50:58;69.03;;;35.17;;
22111;SDS011;11222;50.872;4.312;2023-02-15T14:58:35;58.15;;;32.60;;
22111;SDS011;11222;50.872;4.312;2023-02-15T15:01:07;55.55;;;32.35;;
22111;SDS011;11222;50.872;4.312;2023-02-15T15:03:34;65.95;;;34.63;;
22111;SDS011;11222;50.872;4.312;2023-02-15T15:06:02;57.38;;;33.20;;
22111;SDS011;11222;50.872;4.312;2023-02-15T15:08:38;58.97;;;33.35;;
22111;SDS011;11222;50.872;4.312;2023-02-15T15:13:56;55.88;;;33.22;;
22111;SDS011;11222;50.872;4.312;2023-02-15T15:19:00;62.42;;;34.65;;
22111;SDS011;11222;50.872;4.312;2023-02-15T15:32:49;58.40;;;34.03;;
22111;SDS011;11222;50.872;4.312;2023-02-15T15:43:34;60.17;;;35.55;;
22111;SDS011;11222;50.872;4.312;2023-02-15T15:49:17;59.42;;;34.47;;
22111;SDS011;11222;50.872;4.312;2023-02-15T15:51:45;62.05;;;36.30;;
22111;SDS011;11222;50.872;4.312;2023-02-15T15:54:19;59.58;;;35.45;;
22111;SDS011;11222;50.872;4.312;2023-02-15T15:56:48;55.72;;;35.30;;
22111;SDS011;11222;50.872;4.312;2023-02-15T15:59:21;58.60;;;35.92;;
22111;SDS011;11222;50.872;4.312;2023-02-15T16:01:50;60.85;;;34.72;;
22111;SDS011;11222;50.872;4.312;2023-02-15T16:04:26;54.90;;;33.83;;
22111;SDS011;11222;50.872;4.312;2023-02-15T16:06:54;63.35;;;37.10;;
22111;SDS011;11222;50.872;4.312;2023-02-15T16:09:24;55.30;;;33.50;;
22111;SDS011;11222;50.872;4.312;2023-02-15T16:11:52;60.22;;;34.30;;
22111;SDS011;11222;50.872;4.312;2023-02-15T16:14:30;58.80;;;33.33;;
22111;SDS011;11222;50.872;4.312;2023-02-15T16:17:06;57.15;;;32.90;;
22111;SDS011;11222;50.872;4.312;2023-02-15T16:19:39;57.35;;;33.10;;
22111;SDS011;11222;50.872;4.312;2023-02-15T16:22:11;59.58;;;34.25;;
22111;SDS011;11222;50.872;4.312;2023-02-15T16:27:35;58.17;;;33.03;;
22111;SDS011;11222;50.872;4.312;2023-02-15T16:32:46;50.63;;;30.02;;
22111;SDS011;11222;50.872;4.312;2023-02-15T16:35:17;52.78;;;31.67;;
22111;SDS011;11222;50.872;4.312;2023-02-15T16:37:44;49.33;;;28.25;;
22111;SDS011;11222;50.872;4.312;2023-02-15T16:42:49;52.17;;;30.73;;
22111;SDS011;11222;50.872;4.312;2023-02-15T16:45:16;54.13;;;30.20;;
22111;SDS011;11222;50.872;4.312;2023-02-15T16:47:48;59.58;;;28.75;;
22111;SDS011;11222;50.872;4.312;2023-02-15T16:50:20;53.58;;;30.52;;
22111;SDS011;11222;50.872;4.312;2023-02-15T16:52:49;55.38;;;28.58;;
22111;SDS011;11222;50.872;4.312;2023-02-15T16:55:23;51.67;;;28.73;;
22111;SDS011;11222;50.872;4.312;2023-02-15T16:57:51;53.90;;;32.58;;
22111;SDS011;11222;50.872;4.312;2023-02-15T17:00:25;51.25;;;31.10;;
22111;SDS011;11222;50.872;4.312;2023-02-15T17:08:17;52.17;;;29.92;;
22111;SDS011;11222;50.872;4.312;2023-02-15T17:13:29;53.85;;;30.58;;
22111;SDS011;11222;50.872;4.312;2023-02-15T17:18:27;58.90;;;31.88;;
22111;SDS011;11222;50.872;4.312;2023-02-15T17:20:56;56.70;;;31.73;;
22111;SDS011;11222;50.872;4.312;2023-02-15T17:23:40;56.60;;;32.38;;
22111;SDS011;11222;50.872;4.312;2023-02-15T17:26:12;55.63;;;33.45;;
22111;SDS011;11222;50.872;4.312;2023-02-15T17:29:26;62.10;;;34.45;;
22111;SDS011;11222;50.872;4.312;2023-02-15T17:31:46;70.32;;;36.78;;
22111;SDS011;11222;50.872;4.312;2023-02-15T17:37:13;69.72;;;39.05;;
22111;SDS011;11222;50.872;4.312;2023-02-15T17:39:49;71.65;;;40.17;;
22111;SDS011;11222;50.872;4.312;2023-02-15T17:42:15;88.20;;;46.05;;
22111;SDS011;11222;50.872;4.312;2023-02-15T17:44:41;75.43;;;39.90;;
22111;SDS011;11222;50.872;4.312;2023-02-15T17:47:06;62.75;;;36.22;;
22111;SDS011;11222;50.872;4.312;2023-02-15T17:49:34;73.07;;;39.60;;
22111;SDS011;11222;50.872;4.312;2023-02-15T17:52:02;69.10;;;38.55;;
22111;SDS011;11222;50.872;4.312;2023-02-15T17:54:28;68.05;;;36.88;;
22111;SDS011;11222;50.872;4.312;2023-02-15T17:57:13;67.13;;;37.13;;
22111;SDS011;11222;50.872;4.312;2023-02-15T17:59:40;64.15;;;36.90;;
22111;SDS011;11222;50.872;4.312;2023-02-15T18:02:25;64.05;;;36.63;;
22111;SDS011;11222;50.872;4.312;2023-02-15T18:05:14;67.95;;;37.22;;
22111;SDS011;11222;50.872;4.312;2023-02-15T18:08:00;63.63;;;38.15;;
22111;SDS011;11222;50.872;4.312;2023-02-15T18:10:44;61.95;;;35.90;;
22111;SDS011;11222;50.872;4.312;2023-02-15T18:13:28;67.07;;;40.05;;
22111;SDS011;11222;50.872;4.312;2023-02-15T18:15:54;65.38;;;37.15;;
22111;SDS011;11222;50.872;4.312;2023-02-15T18:18:20;63.60;;;35.08;;
22111;SDS011;11222;50.872;4.312;2023-02-15T18:20:46;69.47;;;37.17;;
22111;SDS011;11222;50.872;4.312;2023-02-15T18:23:15;64.55;;;36.13;;
22111;SDS011;11222;50.872;4.312;2023-02-15T18:25:41;68.95;;;36.67;;
22111;SDS011;11222;50.872;4.312;2023-02-15T18:28:08;61.90;;;36.50;;
22111;SDS011;11222;50.872;4.312;2023-02-15T18:30:37;61.22;;;36.00;;
22111;SDS011;11222;50.872;4.312;2023-02-15T18:33:10;59.22;;;36.60;;
22111;SDS011;11222;50.872;4.312;2023-02-15T18:35:51;67.82;;;41.67;;
22111;SDS011;11222;50.872;4.312;2023-02-15T18:38:17;63.22;;;37.63;;
22111;SDS011;11222;50.872;4.312;2023-02-15T18:40:42;66.78;;;39.25;;
22111;SDS011;11222;50.872;4.312;2023-02-15T18:43:11;67.55;;;36.00;;
22111;SDS011;11222;50.872;4.312;2023-02-15T18:45:37;63.22;;;37.20;;
22111;SDS011;11222;50.872;4.312;2023-02-15T18:48:05;62.50;;;35.88;;
22111;SDS011;11222;50.872;4.312;2023-02-15T18:50:34;68.35;;;40.17;;